sensor_id;sensor_type;location;lat;lon;timestamp;P1;durP1;ratioP1;P2;durP2;ratioP2
36377;SDS011;22402;42.746;23.606;2023-08-12T00:01:05;4.77;;;3.10;;
36377;SDS011;22402;42.746;23.606;2023-08-12T00:03:30;8.90;;;3.60;;
36377;SDS011;22402;42.746;23.606;2023-08-12T00:05:57;3.40;;;3.10;;
36377;SDS011;22402;42.746;23.606;2023-08-12T00:08:25;3.50;;;3.20;;
36377;SDS011;22402;42.746;23.606;2023-08-12T00:10:51;5.80;;;3.30;;
36377;SDS011;22402;42.746;23.606;2023-08-12T00:13:16;3.73;;;3.27;;
36377;SDS011;22402;42.746;23.606;2023-08-12T00:15:42;4.33;;;3.00;;
36377;SDS011;22402;42.746;23.606;2023-08-12T00:18:09;8.70;;;3.90;;
36377;SDS011;22402;42.746;23.606;2023-08-12T00:20:34;4.60;;;3.03;;
36377;SDS011;22402;42.746;23.606;2023-08-12T00:23:00;3.70;;;3.00;;
36377;SDS011;22402;42.746;23.606;2023-08-12T00:25:25;3.23;;;2.93;;
36377;SDS011;22402;42.746;23.606;2023-08-12T00:27:51;4.10;;;3.70;;
36377;SDS011;22402;42.746;23.606;2023-08-12T00:30:17;6.13;;;3.17;;
36377;SDS011;22402;42.746;23.606;2023-08-12T00:32:42;4.80;;;2.73;;
36377;SDS011;22402;42.746;23.606;2023-08-12T00:35:08;3.83;;;3.43;;
36377;SDS011;22402;42.746;23.606;2023-08-12T00:37:33;4.03;;;3.07;;
36377;SDS011;22402;42.746;23.606;2023-08-12T00:39:59;3.60;;;3.20;;
36377;SDS011;22402;42.746;23.606;2023-08-12T00:42:25;4.00;;;3.60;;
36377;SDS011;22402;42.746;23.606;2023-08-12T00:44:50;4.13;;;3.10;;
36377;SDS011;22402;42.746;23.606;2023-08-12T00:47:16;3.03;;;2.73;;
36377;SDS011;22402;42.746;23.606;2023-08-12T00:49:41;4.37;;;3.37;;
36377;SDS011;22402;42.746;23.606;2023-08-12T00:52:10;6.63;;;3.90;;
36377;SDS011;22402;42.746;23.606;2023-08-12T00:54:37;4.50;;;4.00;;
36377;SDS011;22402;42.746;23.606;2023-08-12T00:57:03;3.13;;;2.83;;
36377;SDS011;22402;42.746;23.606;2023-08-12T00:59:28;4.33;;;3.20;;
36377;SDS011;22402;42.746;23.606;2023-08-12T01:01:54;3.23;;;2.93;;
36377;SDS011;22402;42.746;23.606;2023-08-12T01:04:20;5.97;;;3.63;;
36377;SDS011;22402;42.746;23.606;2023-08-12T01:06:45;3.60;;;3.30;;
36377;SDS011;22402;42.746;23.606;2023-08-12T01:09:11;4.73;;;3.70;;
36377;SDS011;22402;42.746;23.606;2023-08-12T01:14:35;3.97;;;3.30;;
36377;SDS011;22402;42.746;23.606;2023-08-12T01:17:10;9.87;;;3.83;;
36377;SDS011;22402;42.746;23.606;2023-08-12T01:19:38;3.70;;;3.10;;
36377;SDS011;22402;42.746;23.606;2023-08-12T01:22:06;5.00;;;3.60;;
36377;SDS011;22402;42.746;23.606;2023-08-12T01:24:37;3.57;;;3.27;;
36377;SDS011;22402;42.746;23.606;2023-08-12T01:27:04;4.90;;;3.27;;
36377;SDS011;22402;42.746;23.606;2023-08-12T01:29:32;4.30;;;3.67;;
36377;SDS011;22402;42.746;23.606;2023-08-12T01:34:45;4.30;;;3.17;;
36377;SDS011;22402;42.746;23.606;2023-08-12T01:37:20;3.70;;;3.30;;
36377;SDS011;22402;42.746;23.606;2023-08-12T01:39:50;3.77;;;3.20;;
36377;SDS011;22402;42.746;23.606;2023-08-12T01:42:17;3.30;;;3.00;;
36377;SDS011;22402;42.746;23.606;2023-08-12T01:44:44;7.07;;;4.40;;
36377;SDS011;22402;42.746;23.606;2023-08-12T01:47:11;5.30;;;3.33;;
36377;SDS011;22402;42.746;23.606;2023-08-12T01:49:36;4.57;;;4.00;;
36377;SDS011;22402;42.746;23.606;2023-08-12T01:52:02;5.10;;;4.07;;
36377;SDS011;22402;42.746;23.606;2023-08-12T01:54:28;5.03;;;3.60;;
36377;SDS011;22402;42.746;23.606;2023-08-12T01:56:59;3.80;;;3.17;;
36377;SDS011;22402;42.746;23.606;2023-08-12T01:59:26;9.57;;;3.37;;
36377;SDS011;22402;42.746;23.606;2023-08-12T02:01:52;3.77;;;3.43;;
36377;SDS011;22402;42.746;23.606;2023-08-12T02:04:17;9.03;;;3.37;;
36377;SDS011;22402;42.746;23.606;2023-08-12T02:06:43;5.10;;;3.40;;
36377;SDS011;22402;42.746;23.606;2023-08-12T02:09:08;4.27;;;3.60;;
36377;SDS011;22402;42.746;23.606;2023-08-12T02:11:33;3.87;;;3.50;;
36377;SDS011;22402;42.746;23.606;2023-08-12T02:13:59;6.80;;;4.13;;
36377;SDS011;22402;42.746;23.606;2023-08-12T02:16:27;4.23;;;3.83;;
36377;SDS011;22402;42.746;23.606;2023-08-12T02:18:53;5.73;;;3.30;;
36377;SDS011;22402;42.746;23.606;2023-08-12T02:21:18;7.10;;;3.10;;
36377;SDS011;22402;42.746;23.606;2023-08-12T02:23:44;4.30;;;3.40;;
36377;SDS011;22402;42.746;23.606;2023-08-12T02:26:09;3.30;;;3.00;;
36377;SDS011;22402;42.746;23.606;2023-08-12T02:28:35;5.40;;;3.63;;
36377;SDS011;22402;42.746;23.606;2023-08-12T02:31:00;6.00;;;3.87;;
36377;SDS011;22402;42.746;23.606;2023-08-12T02:33:26;5.60;;;4.20;;
36377;SDS011;22402;42.746;23.606;2023-08-12T02:35:53;4.77;;;3.50;;
36377;SDS011;22402;42.746;23.606;2023-08-12T02:38:19;4.20;;;3.80;;
36377;SDS011;22402;42.746;23.606;2023-08-12T02:40:49;5.83;;;3.40;;
36377;SDS011;22402;42.746;23.606;2023-08-12T02:43:15;3.80;;;3.50;;
36377;SDS011;22402;42.746;23.606;2023-08-12T02:48:15;4.87;;;3.40;;
36377;SDS011;22402;42.746;23.606;2023-08-12T02:50:41;4.80;;;3.43;;
36377;SDS011;22402;42.746;23.606;2023-08-12T02:53:07;5.90;;;3.73;;
36377;SDS011;22402;42.746;23.606;2023-08-12T02:55:33;6.10;;;3.83;;
36377;SDS011;22402;42.746;23.606;2023-08-12T02:57:59;3.90;;;3.50;;
36377;SDS011;22402;42.746;23.606;2023-08-12T03:00:25;5.43;;;3.80;;
36377;SDS011;22402;42.746;23.606;2023-08-12T03:02:51;7.60;;;3.30;;
36377;SDS011;22402;42.746;23.606;2023-08-12T03:05:16;4.37;;;3.97;;
36377;SDS011;22402;42.746;23.606;2023-08-12T03:07:43;4.40;;;4.00;;
36377;SDS011;22402;42.746;23.606;2023-08-12T03:10:09;6.30;;;3.70;;
36377;SDS011;22402;42.746;23.606;2023-08-12T03:25:36;4.33;;;3.93;;
36377;SDS011;22402;42.746;23.606;2023-08-12T03:28:01;5.10;;;3.43;;
36377;SDS011;22402;42.746;23.606;2023-08-12T03:30:27;4.13;;;3.63;;
36377;SDS011;22402;42.746;23.606;2023-08-12T03:32:52;5.90;;;3.50;;
36377;SDS011;22402;42.746;23.606;2023-08-12T03:35:18;6.90;;;3.77;;
36377;SDS011;22402;42.746;23.606;2023-08-12T03:37:44;4.57;;;4.10;;
36377;SDS011;22402;42.746;23.606;2023-08-12T03:40:09;3.80;;;3.50;;
36377;SDS011;22402;42.746;23.606;2023-08-12T03:42:35;5.77;;;3.60;;
36377;SDS011;22402;42.746;23.606;2023-08-12T03:45:00;4.13;;;3.73;;
36377;SDS011;22402;42.746;23.606;2023-08-12T03:47:26;5.13;;;3.57;;
36377;SDS011;22402;42.746;23.606;2023-08-12T03:49:51;5.10;;;4.00;;
36377;SDS011;22402;42.746;23.606;2023-08-12T03:52:18;4.00;;;3.60;;
36377;SDS011;22402;42.746;23.606;2023-08-12T03:54:43;4.13;;;3.73;;
36377;SDS011;22402;42.746;23.606;2023-08-12T03:57:10;4.53;;;3.90;;
36377;SDS011;22402;42.746;23.606;2023-08-12T03:59:35;5.00;;;4.00;;
36377;SDS011;22402;42.746;23.606;2023-08-12T04:02:01;5.17;;;4.03;;
36377;SDS011;22402;42.746;23.606;2023-08-12T04:04:27;5.00;;;3.80;;
36377;SDS011;22402;42.746;23.606;2023-08-12T04:06:52;4.37;;;3.97;;
36377;SDS011;22402;42.746;23.606;2023-08-12T04:09:18;6.90;;;3.60;;
36377;SDS011;22402;42.746;23.606;2023-08-12T04:11:44;4.63;;;4.23;;
36377;SDS011;22402;42.746;23.606;2023-08-12T04:14:13;5.60;;;4.10;;
36377;SDS011;22402;42.746;23.606;2023-08-12T04:16:39;3.63;;;3.33;;
36377;SDS011;22402;42.746;23.606;2023-08-12T04:19:05;4.30;;;3.90;;
36377;SDS011;22402;42.746;23.606;2023-08-12T04:21:30;4.73;;;3.73;;
36377;SDS011;22402;42.746;23.606;2023-08-12T04:23:56;3.83;;;3.53;;
36377;SDS011;22402;42.746;23.606;2023-08-12T04:26:21;4.10;;;3.80;;
36377;SDS011;22402;42.746;23.606;2023-08-12T04:28:47;4.40;;;4.00;;
36377;SDS011;22402;42.746;23.606;2023-08-12T04:31:12;9.10;;;7.23;;
36377;SDS011;22402;42.746;23.606;2023-08-12T04:46:01;5.23;;;3.80;;
36377;SDS011;22402;42.746;23.606;2023-08-12T04:48:30;8.67;;;4.17;;
36377;SDS011;22402;42.746;23.606;2023-08-12T04:50:56;4.70;;;4.30;;
36377;SDS011;22402;42.746;23.606;2023-08-12T04:53:25;10.63;;;4.03;;
36377;SDS011;22402;42.746;23.606;2023-08-12T04:55:50;7.80;;;3.77;;
36377;SDS011;22402;42.746;23.606;2023-08-12T04:58:16;4.03;;;3.70;;
36377;SDS011;22402;42.746;23.606;2023-08-12T05:00:42;5.03;;;4.00;;
36377;SDS011;22402;42.746;23.606;2023-08-12T05:03:07;4.63;;;4.20;;
36377;SDS011;22402;42.746;23.606;2023-08-12T05:05:33;4.23;;;3.70;;
36377;SDS011;22402;42.746;23.606;2023-08-12T05:07:58;4.20;;;3.80;;
36377;SDS011;22402;42.746;23.606;2023-08-12T05:10:24;4.17;;;3.77;;
36377;SDS011;22402;42.746;23.606;2023-08-12T05:12:49;4.00;;;3.60;;
36377;SDS011;22402;42.746;23.606;2023-08-12T05:15:17;3.93;;;3.53;;
36377;SDS011;22402;42.746;23.606;2023-08-12T05:17:42;4.10;;;3.10;;
36377;SDS011;22402;42.746;23.606;2023-08-12T05:20:08;7.23;;;3.97;;
36377;SDS011;22402;42.746;23.606;2023-08-12T05:22:34;4.57;;;3.80;;
36377;SDS011;22402;42.746;23.606;2023-08-12T05:24:59;5.60;;;4.10;;
36377;SDS011;22402;42.746;23.606;2023-08-12T05:27:25;4.77;;;4.10;;
36377;SDS011;22402;42.746;23.606;2023-08-12T05:29:50;4.13;;;3.73;;
36377;SDS011;22402;42.746;23.606;2023-08-12T05:32:16;5.07;;;3.67;;
36377;SDS011;22402;42.746;23.606;2023-08-12T05:34:41;4.80;;;4.30;;
36377;SDS011;22402;42.746;23.606;2023-08-12T05:37:06;3.77;;;3.47;;
36377;SDS011;22402;42.746;23.606;2023-08-12T05:39:32;3.40;;;3.13;;
36377;SDS011;22402;42.746;23.606;2023-08-12T05:41:57;4.00;;;3.70;;
36377;SDS011;22402;42.746;23.606;2023-08-12T05:44:23;4.60;;;4.07;;
36377;SDS011;22402;42.746;23.606;2023-08-12T05:46:48;4.60;;;4.20;;
36377;SDS011;22402;42.746;23.606;2023-08-12T05:49:14;4.63;;;3.93;;
36377;SDS011;22402;42.746;23.606;2023-08-12T05:51:39;4.70;;;3.97;;
36377;SDS011;22402;42.746;23.606;2023-08-12T05:54:06;8.03;;;3.33;;
36377;SDS011;22402;42.746;23.606;2023-08-12T05:56:32;5.20;;;3.97;;
36377;SDS011;22402;42.746;23.606;2023-08-12T05:58:58;4.10;;;3.70;;
36377;SDS011;22402;42.746;23.606;2023-08-12T06:01:23;3.87;;;3.47;;
36377;SDS011;22402;42.746;23.606;2023-08-12T06:03:48;4.70;;;3.70;;
36377;SDS011;22402;42.746;23.606;2023-08-12T06:06:14;4.97;;;3.80;;
36377;SDS011;22402;42.746;23.606;2023-08-12T06:08:39;3.97;;;3.67;;
36377;SDS011;22402;42.746;23.606;2023-08-12T06:11:05;5.00;;;3.77;;
36377;SDS011;22402;42.746;23.606;2023-08-12T06:13:31;4.40;;;4.00;;
36377;SDS011;22402;42.746;23.606;2023-08-12T06:15:56;4.33;;;3.93;;
36377;SDS011;22402;42.746;23.606;2023-08-12T06:18:22;3.70;;;3.37;;
36377;SDS011;22402;42.746;23.606;2023-08-12T06:20:47;4.77;;;3.93;;
36377;SDS011;22402;42.746;23.606;2023-08-12T06:23:13;4.33;;;3.30;;
36377;SDS011;22402;42.746;23.606;2023-08-12T06:25:38;5.57;;;3.63;;
36377;SDS011;22402;42.746;23.606;2023-08-12T06:28:04;3.67;;;3.23;;
36377;SDS011;22402;42.746;23.606;2023-08-12T06:30:30;3.60;;;3.30;;
36377;SDS011;22402;42.746;23.606;2023-08-12T06:32:55;4.93;;;3.53;;
36377;SDS011;22402;42.746;23.606;2023-08-12T06:35:21;5.03;;;2.80;;
36377;SDS011;22402;42.746;23.606;2023-08-12T06:37:47;5.40;;;3.57;;
36377;SDS011;22402;42.746;23.606;2023-08-12T06:40:12;2.80;;;2.60;;
36377;SDS011;22402;42.746;23.606;2023-08-12T06:42:38;3.40;;;3.10;;
36377;SDS011;22402;42.746;23.606;2023-08-12T06:45:03;4.73;;;3.10;;
36377;SDS011;22402;42.746;23.606;2023-08-12T06:47:32;4.40;;;2.87;;
36377;SDS011;22402;42.746;23.606;2023-08-12T06:49:58;4.10;;;3.47;;
36377;SDS011;22402;42.746;23.606;2023-08-12T06:52:23;5.87;;;3.27;;
36377;SDS011;22402;42.746;23.606;2023-08-12T06:54:49;3.30;;;2.80;;
36377;SDS011;22402;42.746;23.606;2023-08-12T06:57:14;3.73;;;3.20;;
36377;SDS011;22402;42.746;23.606;2023-08-12T06:59:40;3.00;;;2.70;;
36377;SDS011;22402;42.746;23.606;2023-08-12T07:02:06;2.70;;;2.50;;
36377;SDS011;22402;42.746;23.606;2023-08-12T07:04:32;3.47;;;3.17;;
36377;SDS011;22402;42.746;23.606;2023-08-12T07:06:57;5.13;;;3.33;;
36377;SDS011;22402;42.746;23.606;2023-08-12T07:09:22;4.60;;;3.10;;
36377;SDS011;22402;42.746;23.606;2023-08-12T07:11:48;3.70;;;2.97;;
36377;SDS011;22402;42.746;23.606;2023-08-12T07:14:13;3.60;;;3.07;;
36377;SDS011;22402;42.746;23.606;2023-08-12T07:16:42;2.90;;;2.67;;
36377;SDS011;22402;42.746;23.606;2023-08-12T07:19:07;2.70;;;2.33;;
36377;SDS011;22402;42.746;23.606;2023-08-12T07:21:33;3.77;;;2.93;;
36377;SDS011;22402;42.746;23.606;2023-08-12T07:23:58;2.97;;;2.53;;
36377;SDS011;22402;42.746;23.606;2023-08-12T07:26:24;5.73;;;2.80;;
36377;SDS011;22402;42.746;23.606;2023-08-12T07:28:50;2.63;;;2.37;;
36377;SDS011;22402;42.746;23.606;2023-08-12T07:31:17;6.17;;;2.40;;
36377;SDS011;22402;42.746;23.606;2023-08-12T07:33:43;3.60;;;2.50;;
36377;SDS011;22402;42.746;23.606;2023-08-12T07:36:09;2.90;;;2.40;;
36377;SDS011;22402;42.746;23.606;2023-08-12T07:38:34;2.63;;;2.43;;
36377;SDS011;22402;42.746;23.606;2023-08-12T07:41:00;3.10;;;2.23;;
36377;SDS011;22402;42.746;23.606;2023-08-12T07:43:25;2.60;;;2.27;;
36377;SDS011;22402;42.746;23.606;2023-08-12T07:45:51;4.33;;;2.50;;
36377;SDS011;22402;42.746;23.606;2023-08-12T07:48:18;3.10;;;2.43;;
36377;SDS011;22402;42.746;23.606;2023-08-12T07:50:44;2.73;;;2.40;;
36377;SDS011;22402;42.746;23.606;2023-08-12T07:53:10;2.60;;;2.23;;
36377;SDS011;22402;42.746;23.606;2023-08-12T07:55:35;2.40;;;2.20;;
36377;SDS011;22402;42.746;23.606;2023-08-12T07:58:01;6.80;;;2.47;;
36377;SDS011;22402;42.746;23.606;2023-08-12T08:00:26;2.00;;;1.67;;
36377;SDS011;22402;42.746;23.606;2023-08-12T08:02:52;2.30;;;1.80;;
36377;SDS011;22402;42.746;23.606;2023-08-12T08:05:17;1.97;;;1.80;;
36377;SDS011;22402;42.746;23.606;2023-08-12T08:07:43;2.90;;;2.07;;
36377;SDS011;22402;42.746;23.606;2023-08-12T08:10:08;2.37;;;1.80;;
36377;SDS011;22402;42.746;23.606;2023-08-12T08:12:37;3.33;;;1.67;;
36377;SDS011;22402;42.746;23.606;2023-08-12T08:15:02;2.43;;;2.10;;
36377;SDS011;22402;42.746;23.606;2023-08-12T08:17:28;3.40;;;2.60;;
36377;SDS011;22402;42.746;23.606;2023-08-12T08:19:54;2.93;;;1.90;;
36377;SDS011;22402;42.746;23.606;2023-08-12T08:22:19;1.60;;;1.50;;
36377;SDS011;22402;42.746;23.606;2023-08-12T08:24:45;1.97;;;1.73;;
36377;SDS011;22402;42.746;23.606;2023-08-12T08:27:10;1.67;;;1.57;;
36377;SDS011;22402;42.746;23.606;2023-08-12T08:29:36;1.40;;;1.30;;
36377;SDS011;22402;42.746;23.606;2023-08-12T08:32:01;2.27;;;1.90;;
36377;SDS011;22402;42.746;23.606;2023-08-12T08:34:30;2.10;;;2.00;;
36377;SDS011;22402;42.746;23.606;2023-08-12T08:36:55;3.20;;;1.83;;
36377;SDS011;22402;42.746;23.606;2023-08-12T08:39:21;2.13;;;1.67;;
36377;SDS011;22402;42.746;23.606;2023-08-12T08:41:47;1.83;;;1.73;;
36377;SDS011;22402;42.746;23.606;2023-08-12T08:44:13;2.03;;;1.93;;
36377;SDS011;22402;42.746;23.606;2023-08-12T08:46:41;1.87;;;1.67;;
36377;SDS011;22402;42.746;23.606;2023-08-12T08:49:08;2.30;;;1.70;;
36377;SDS011;22402;42.746;23.606;2023-08-12T08:51:35;1.27;;;1.17;;
36377;SDS011;22402;42.746;23.606;2023-08-12T08:54:03;1.73;;;1.43;;
36377;SDS011;22402;42.746;23.606;2023-08-12T08:56:31;3.30;;;1.50;;
36377;SDS011;22402;42.746;23.606;2023-08-12T08:58:57;1.30;;;1.20;;
36377;SDS011;22402;42.746;23.606;2023-08-12T09:01:23;1.87;;;1.50;;
36377;SDS011;22402;42.746;23.606;2023-08-12T09:03:52;1.40;;;1.30;;
36377;SDS011;22402;42.746;23.606;2023-08-12T09:06:19;1.60;;;1.50;;
36377;SDS011;22402;42.746;23.606;2023-08-12T09:08:47;1.20;;;1.10;;
36377;SDS011;22402;42.746;23.606;2023-08-12T09:11:16;1.57;;;1.23;;
36377;SDS011;22402;42.746;23.606;2023-08-12T09:13:42;1.40;;;1.30;;
36377;SDS011;22402;42.746;23.606;2023-08-12T09:16:08;1.53;;;1.20;;
36377;SDS011;22402;42.746;23.606;2023-08-12T09:18:34;1.70;;;1.30;;
36377;SDS011;22402;42.746;23.606;2023-08-12T09:21:01;1.33;;;1.20;;
36377;SDS011;22402;42.746;23.606;2023-08-12T09:23:27;1.27;;;1.17;;
36377;SDS011;22402;42.746;23.606;2023-08-12T09:25:53;2.60;;;1.50;;
36377;SDS011;22402;42.746;23.606;2023-08-12T09:28:19;1.20;;;1.10;;
36377;SDS011;22402;42.746;23.606;2023-08-12T09:30:54;1.60;;;1.50;;
36377;SDS011;22402;42.746;23.606;2023-08-12T09:33:28;1.80;;;1.70;;
36377;SDS011;22402;42.746;23.606;2023-08-12T09:35:54;1.90;;;1.80;;
36377;SDS011;22402;42.746;23.606;2023-08-12T09:38:21;1.27;;;1.20;;
36377;SDS011;22402;42.746;23.606;2023-08-12T09:40:47;1.33;;;1.03;;
36377;SDS011;22402;42.746;23.606;2023-08-12T09:43:13;1.60;;;1.50;;
36377;SDS011;22402;42.746;23.606;2023-08-12T09:45:40;1.77;;;1.40;;
36377;SDS011;22402;42.746;23.606;2023-08-12T09:48:05;1.40;;;1.30;;
36377;SDS011;22402;42.746;23.606;2023-08-12T09:50:33;1.37;;;1.20;;
36377;SDS011;22402;42.746;23.606;2023-08-12T09:53:01;1.20;;;1.00;;
36377;SDS011;22402;42.746;23.606;2023-08-12T09:55:28;0.90;;;0.90;;
36377;SDS011;22402;42.746;23.606;2023-08-12T09:57:54;2.67;;;0.90;;
36377;SDS011;22402;42.746;23.606;2023-08-12T10:00:22;0.90;;;0.90;;
36377;SDS011;22402;42.746;23.606;2023-08-12T10:02:49;1.35;;;0.88;;
36377;SDS011;22402;42.746;23.606;2023-08-12T10:05:19;1.00;;;1.00;;
36377;SDS011;22402;42.746;23.606;2023-08-12T10:07:52;0.90;;;0.90;;
36377;SDS011;22402;42.746;23.606;2023-08-12T10:10:18;0.93;;;0.90;;
36377;SDS011;22402;42.746;23.606;2023-08-12T10:12:45;1.45;;;0.90;;
36377;SDS011;22402;42.746;23.606;2023-08-12T10:15:10;1.08;;;0.88;;
36377;SDS011;22402;42.746;23.606;2023-08-12T10:17:36;1.35;;;0.90;;
36377;SDS011;22402;42.746;23.606;2023-08-12T10:20:03;0.80;;;0.80;;
36377;SDS011;22402;42.746;23.606;2023-08-12T10:22:30;1.30;;;1.20;;
36377;SDS011;22402;42.746;23.606;2023-08-12T10:24:59;1.40;;;0.90;;
36377;SDS011;22402;42.746;23.606;2023-08-12T10:27:27;1.27;;;1.10;;
36377;SDS011;22402;42.746;23.606;2023-08-12T10:29:55;1.10;;;0.90;;
36377;SDS011;22402;42.746;23.606;2023-08-12T10:32:21;1.40;;;1.30;;
36377;SDS011;22402;42.746;23.606;2023-08-12T10:34:50;2.47;;;1.43;;
36377;SDS011;22402;42.746;23.606;2023-08-12T10:37:20;1.67;;;1.40;;
36377;SDS011;22402;42.746;23.606;2023-08-12T10:39:45;2.20;;;2.00;;
36377;SDS011;22402;42.746;23.606;2023-08-12T10:42:11;2.97;;;1.80;;
36377;SDS011;22402;42.746;23.606;2023-08-12T10:44:51;2.40;;;2.07;;
36377;SDS011;22402;42.746;23.606;2023-08-12T10:47:17;4.07;;;2.23;;
36377;SDS011;22402;42.746;23.606;2023-08-12T10:49:43;2.33;;;2.07;;
36377;SDS011;22402;42.746;23.606;2023-08-12T10:52:34;2.30;;;2.10;;
36377;SDS011;22402;42.746;23.606;2023-08-12T10:57:49;2.27;;;1.90;;
36377;SDS011;22402;42.746;23.606;2023-08-12T11:00:33;1.97;;;1.83;;
36377;SDS011;22402;42.746;23.606;2023-08-12T11:03:00;1.50;;;1.23;;
36377;SDS011;22402;42.746;23.606;2023-08-12T11:05:37;1.10;;;1.07;;
36377;SDS011;22402;42.746;23.606;2023-08-12T11:08:03;1.53;;;1.43;;
36377;SDS011;22402;42.746;23.606;2023-08-12T11:10:31;3.87;;;1.40;;
36377;SDS011;22402;42.746;23.606;2023-08-12T11:12:58;0.80;;;0.80;;
36377;SDS011;22402;42.746;23.606;2023-08-12T11:18:07;1.67;;;0.85;;
36377;SDS011;22402;42.746;23.606;2023-08-12T11:20:33;0.85;;;0.85;;
36377;SDS011;22402;42.746;23.606;2023-08-12T11:22:59;0.70;;;0.70;;
36377;SDS011;22402;42.746;23.606;2023-08-12T11:25:27;0.80;;;0.80;;
36377;SDS011;22402;42.746;23.606;2023-08-12T11:27:54;1.70;;;1.17;;
36377;SDS011;22402;42.746;23.606;2023-08-12T11:30:21;0.95;;;0.85;;
36377;SDS011;22402;42.746;23.606;2023-08-12T11:32:48;1.02;;;0.88;;
36377;SDS011;22402;42.746;23.606;2023-08-12T11:35:15;1.13;;;1.13;;
36377;SDS011;22402;42.746;23.606;2023-08-12T11:37:42;1.40;;;1.10;;
36377;SDS011;22402;42.746;23.606;2023-08-12T11:40:10;1.67;;;1.20;;
36377;SDS011;22402;42.746;23.606;2023-08-12T11:42:40;1.57;;;1.13;;
36377;SDS011;22402;42.746;23.606;2023-08-12T11:45:06;1.60;;;1.10;;
36377;SDS011;22402;42.746;23.606;2023-08-12T11:47:36;1.70;;;1.60;;
36377;SDS011;22402;42.746;23.606;2023-08-12T11:50:03;1.77;;;1.23;;
36377;SDS011;22402;42.746;23.606;2023-08-12T11:52:29;2.03;;;1.70;;
36377;SDS011;22402;42.746;23.606;2023-08-12T11:54:55;1.60;;;1.50;;
36377;SDS011;22402;42.746;23.606;2023-08-12T11:57:22;1.53;;;1.20;;
36377;SDS011;22402;42.746;23.606;2023-08-12T11:59:51;1.50;;;1.33;;
36377;SDS011;22402;42.746;23.606;2023-08-12T12:02:16;2.00;;;1.67;;
36377;SDS011;22402;42.746;23.606;2023-08-12T12:04:42;1.83;;;1.50;;
36377;SDS011;22402;42.746;23.606;2023-08-12T12:07:20;3.10;;;1.70;;
36377;SDS011;22402;42.746;23.606;2023-08-12T12:09:50;1.53;;;1.43;;
36377;SDS011;22402;42.746;23.606;2023-08-12T12:12:16;1.67;;;1.57;;
36377;SDS011;22402;42.746;23.606;2023-08-12T12:14:42;2.10;;;1.40;;
36377;SDS011;22402;42.746;23.606;2023-08-12T12:17:08;1.80;;;1.60;;
36377;SDS011;22402;42.746;23.606;2023-08-12T12:19:39;2.60;;;1.40;;
36377;SDS011;22402;42.746;23.606;2023-08-12T12:22:05;1.53;;;1.43;;
36377;SDS011;22402;42.746;23.606;2023-08-12T12:24:31;1.50;;;1.40;;
36377;SDS011;22402;42.746;23.606;2023-08-12T12:27:08;1.90;;;1.70;;
36377;SDS011;22402;42.746;23.606;2023-08-12T12:29:33;1.60;;;1.20;;
36377;SDS011;22402;42.746;23.606;2023-08-12T12:31:59;1.90;;;1.40;;
36377;SDS011;22402;42.746;23.606;2023-08-12T12:34:24;1.87;;;1.77;;
36377;SDS011;22402;42.746;23.606;2023-08-12T12:36:50;1.60;;;1.50;;
36377;SDS011;22402;42.746;23.606;2023-08-12T12:39:18;2.90;;;1.53;;
36377;SDS011;22402;42.746;23.606;2023-08-12T12:41:44;2.60;;;1.60;;
36377;SDS011;22402;42.746;23.606;2023-08-12T12:44:10;1.97;;;1.07;;
36377;SDS011;22402;42.746;23.606;2023-08-12T12:46:35;4.30;;;1.57;;
36377;SDS011;22402;42.746;23.606;2023-08-12T12:49:01;2.50;;;1.30;;
36377;SDS011;22402;42.746;23.606;2023-08-12T12:51:28;1.30;;;1.20;;
36377;SDS011;22402;42.746;23.606;2023-08-12T12:53:53;0.80;;;0.80;;
36377;SDS011;22402;42.746;23.606;2023-08-12T12:56:19;1.30;;;1.20;;
36377;SDS011;22402;42.746;23.606;2023-08-12T12:58:44;1.40;;;0.83;;
36377;SDS011;22402;42.746;23.606;2023-08-12T13:01:10;0.70;;;0.70;;
36377;SDS011;22402;42.746;23.606;2023-08-12T13:03:35;1.20;;;1.10;;
36377;SDS011;22402;42.746;23.606;2023-08-12T13:06:00;1.00;;;0.90;;
36377;SDS011;22402;42.746;23.606;2023-08-12T13:08:30;1.23;;;0.93;;
36377;SDS011;22402;42.746;23.606;2023-08-12T13:10:56;1.70;;;0.83;;
36377;SDS011;22402;42.746;23.606;2023-08-12T13:13:22;0.87;;;0.87;;
36377;SDS011;22402;42.746;23.606;2023-08-12T13:15:48;1.00;;;0.93;;
36377;SDS011;22402;42.746;23.606;2023-08-12T13:18:14;1.67;;;0.93;;
36377;SDS011;22402;42.746;23.606;2023-08-12T13:20:39;1.03;;;0.90;;
36377;SDS011;22402;42.746;23.606;2023-08-12T13:23:05;1.23;;;0.97;;
36377;SDS011;22402;42.746;23.606;2023-08-12T13:25:31;0.90;;;0.90;;
36377;SDS011;22402;42.746;23.606;2023-08-12T13:28:02;0.80;;;0.80;;
36377;SDS011;22402;42.746;23.606;2023-08-12T13:30:28;1.30;;;1.10;;
36377;SDS011;22402;42.746;23.606;2023-08-12T13:32:54;0.87;;;0.83;;
36377;SDS011;22402;42.746;23.606;2023-08-12T13:35:21;1.10;;;1.10;;
36377;SDS011;22402;42.746;23.606;2023-08-12T13:37:46;0.80;;;0.80;;
36377;SDS011;22402;42.746;23.606;2023-08-12T13:40:12;1.20;;;1.00;;
36377;SDS011;22402;42.746;23.606;2023-08-12T13:42:39;1.63;;;1.23;;
36377;SDS011;22402;42.746;23.606;2023-08-12T13:45:05;1.43;;;1.03;;
36377;SDS011;22402;42.746;23.606;2023-08-12T13:47:31;1.30;;;1.20;;
36377;SDS011;22402;42.746;23.606;2023-08-12T13:49:58;1.37;;;0.83;;
36377;SDS011;22402;42.746;23.606;2023-08-12T13:52:24;1.00;;;0.90;;
36377;SDS011;22402;42.746;23.606;2023-08-12T13:54:49;1.37;;;1.27;;
36377;SDS011;22402;42.746;23.606;2023-08-12T13:57:14;1.93;;;1.50;;
36377;SDS011;22402;42.746;23.606;2023-08-12T13:59:40;1.50;;;1.40;;
36377;SDS011;22402;42.746;23.606;2023-08-12T14:02:08;1.57;;;1.47;;
36377;SDS011;22402;42.746;23.606;2023-08-12T14:04:37;2.63;;;1.70;;
36377;SDS011;22402;42.746;23.606;2023-08-12T14:07:03;2.00;;;1.37;;
36377;SDS011;22402;42.746;23.606;2023-08-12T14:09:29;1.30;;;1.17;;
36377;SDS011;22402;42.746;23.606;2023-08-12T14:11:55;1.47;;;1.37;;
36377;SDS011;22402;42.746;23.606;2023-08-12T14:14:22;1.60;;;1.50;;
36377;SDS011;22402;42.746;23.606;2023-08-12T14:16:48;2.03;;;1.40;;
36377;SDS011;22402;42.746;23.606;2023-08-12T14:19:13;3.27;;;1.67;;
36377;SDS011;22402;42.746;23.606;2023-08-12T14:21:41;1.70;;;1.60;;
36377;SDS011;22402;42.746;23.606;2023-08-12T14:24:07;3.10;;;1.50;;
36377;SDS011;22402;42.746;23.606;2023-08-12T14:26:34;1.60;;;1.43;;
36377;SDS011;22402;42.746;23.606;2023-08-12T14:28:59;1.50;;;1.40;;
36377;SDS011;22402;42.746;23.606;2023-08-12T14:31:25;1.40;;;1.30;;
36377;SDS011;22402;42.746;23.606;2023-08-12T14:33:50;8.23;;;1.80;;
36377;SDS011;22402;42.746;23.606;2023-08-12T14:36:16;1.70;;;1.60;;
36377;SDS011;22402;42.746;23.606;2023-08-12T14:38:41;3.37;;;2.73;;
36377;SDS011;22402;42.746;23.606;2023-08-12T14:41:06;2.80;;;2.10;;
36377;SDS011;22402;42.746;23.606;2023-08-12T14:43:32;2.20;;;1.90;;
36377;SDS011;22402;42.746;23.606;2023-08-12T14:45:57;3.17;;;2.03;;
36377;SDS011;22402;42.746;23.606;2023-08-12T14:48:23;1.60;;;1.50;;
36377;SDS011;22402;42.746;23.606;2023-08-12T14:50:48;1.40;;;1.20;;
36377;SDS011;22402;42.746;23.606;2023-08-12T14:53:14;2.30;;;1.60;;
36377;SDS011;22402;42.746;23.606;2023-08-12T14:55:40;1.60;;;1.50;;
36377;SDS011;22402;42.746;23.606;2023-08-12T14:58:05;1.57;;;1.47;;
36377;SDS011;22402;42.746;23.606;2023-08-12T15:00:31;1.63;;;1.53;;
36377;SDS011;22402;42.746;23.606;2023-08-12T15:02:58;2.13;;;1.70;;
36377;SDS011;22402;42.746;23.606;2023-08-12T15:05:24;1.60;;;1.43;;
36377;SDS011;22402;42.746;23.606;2023-08-12T15:07:49;1.40;;;1.30;;